Orangeburg, South Carolina
Current Conditions -  °F | °C
As of 6:53 AM on Thursday 23 Oct 2014 (Local Time) from KOGB Reporting Station
Clear Clear  
Wind Chill: 44°   Ceiling: Unl
Heat Index: 44°   Visibility: 10mi
Dew Point: 39°   Wind: 3mph
Humidity: 82%   Direction: 340°NNW
Pressure: 30.09"   Gusts: NA
Location:  33.49°N, 80.86°W
Report Text: KOGB 231053Z AUTO 34003KT 10SM CLR 07/04 A3009 RMK AO2 SLP187 T00670039
Loading
Personal Weather Stations






























Interactive Weather Map
Tropical Storm Tracking
New forecast layout! Learn more

10-Day Weather Forecast

Advertisements
Track Severe Weather on mobile